Time,TemperatureF,DewpointF,PressureIn,WindDirection,WindDirectionDegrees,WindSpeedMPH,WindSpeedGustMPH,Humidity,HourlyPrecipIn,Conditions,Clouds,dailyrainin,SoftwareType,DateUTC
2013-06-26 00:01:00,73.6,72.0,29.81,WNW,292,1.0,1.0,93,0.04,,,0.07,weatherlink.com 1.10,2013-06-26 04:01:00,
2013-06-26 00:16:00,73.2,71.0,29.81,WSW,255,1.0,1.0,94,0.02,,,0.00,weatherlink.com 1.10,2013-06-26 04:16:00,
2013-06-26 00:31:00,72.9,71.0,29.80,WSW,246,0.0,1.0,95,0.00,,,0.00,weatherlink.com 1.10,2013-06-26 04:31:00,
2013-06-26 00:46:00,72.7,71.0,29.80,WSW,246,0.0,1.0,95,0.00,,,0.00,weatherlink.com 1.10,2013-06-26 04:46:00,
2013-06-26 01:01:00,72.5,71.0,29.79,WSW,246,0.0,0.0,95,0.00,,,0.00,weatherlink.com 1.10,2013-06-26 05:01:00,
2013-06-26 01:16:00,72.3,71.0,29.79,WSW,246,0.0,0.0,96,0.00,,,0.00,weatherlink.com 1.10,2013-06-26 05:16:00,
2013-06-26 01:31:00,72.1,71.0,29.78,WSW,246,0.0,0.0,96,0.00,,,0.00,weatherlink.com 1.10,2013-06-26 05:31:00,
2013-06-26 01:46:00,72.1,71.0,29.78,WSW,246,0.0,1.0,96,0.00,,,0.00,weatherlink.com 1.10,2013-06-26 05:46:00,
2013-06-26 02:01:00,71.9,71.0,29.79,NW,305,1.0,1.0,96,0.00,,,0.00,weatherlink.com 1.10,2013-06-26 06:01:00,
2013-06-26 02:16:00,72.3,71.0,29.79,West,274,0.0,3.0,94,0.00,,,0.00,weatherlink.com 1.10,2013-06-26 06:16:00,
2013-06-26 02:31:00,72.3,71.0,29.79,North,7,1.0,2.0,94,0.00,,,0.00,weatherlink.com 1.10,2013-06-26 06:31:00,
2013-06-26 02:46:00,72.4,70.0,29.79,North,9,1.0,3.0,92,0.00,,,0.00,weatherlink.com 1.10,2013-06-26 06:46:00,
2013-06-26 03:01:00,72.4,70.0,29.79,NNW,340,0.0,2.0,91,0.00,,,0.00,weatherlink.com 1.10,2013-06-26 07:01:00,
2013-06-26 03:16:00,72.0,69.0,29.79,WNW,298,1.0,3.0,91,0.00,,,0.00,weatherlink.com 1.10,2013-06-26 07:16:00,
2013-06-26 03:32:00,72.2,69.0,29.79,NNW,348,1.0,3.0,89,0.00,,,0.00,weatherlink.com 1.10,2013-06-26 07:32:00,
2013-06-26 03:47:00,72.1,68.0,29.80,NW,311,0.0,2.0,88,0.00,,,0.00,weatherlink.com 1.10,2013-06-26 07:47:00,
2013-06-26 04:02:00,71.6,68.0,29.80,North,360,1.0,2.0,88,0.00,,,0.00,weatherlink.com 1.10,2013-06-26 08:02:00,
2013-06-26 04:17:00,71.4,68.0,29.80,NNW,328,0.0,3.0,88,0.00,,,0.00,weatherlink.com 1.10,2013-06-26 08:17:00,
2013-06-26 04:32:00,71.4,67.0,29.80,NE,44,0.0,4.0,87,0.00,,,0.00,weatherlink.com 1.10,2013-06-26 08:32:00,
2013-06-26 04:47:00,71.2,67.0,29.80,NW,316,1.0,2.0,87,0.00,,,0.00,weatherlink.com 1.10,2013-06-26 08:47:00,
2013-06-26 05:02:00,71.2,67.0,29.81,West,266,0.0,2.0,87,0.00,,,0.00,weatherlink.com 1.10,2013-06-26 09:02:00,
2013-06-26 05:17:00,71.4,67.0,29.81,NNW,346,0.0,3.0,86,0.00,,,0.00,weatherlink.com 1.10,2013-06-26 09:17:00,
2013-06-26 05:32:00,71.5,67.0,29.82,NW,319,1.0,3.0,85,0.00,,,0.00,weatherlink.com 1.10,2013-06-26 09:32:00,
2013-06-26 05:47:00,71.3,67.0,29.82,NW,318,0.0,3.0,85,0.00,,,0.00,weatherlink.com 1.10,2013-06-26 09:47:00,
2013-06-26 06:02:00,71.3,67.0,29.82,ESE,123,0.0,1.0,85,0.00,,,0.00,weatherlink.com 1.10,2013-06-26 10:02:00,
2013-06-26 06:17:00,71.3,67.0,29.83,West,278,1.0,3.0,85,0.00,,,0.00,weatherlink.com 1.10,2013-06-26 10:17:00,
2013-06-26 06:32:00,71.2,67.0,29.83,North,355,0.0,3.0,85,0.00,,,0.00,weatherlink.com 1.10,2013-06-26 10:32:00,
2013-06-26 06:47:00,71.1,67.0,29.84,West,278,0.0,1.0,86,0.00,,,0.00,weatherlink.com 1.10,2013-06-26 10:47:00,
2013-06-26 07:02:00,71.3,67.0,29.84,WNW,284,1.0,2.0,85,0.00,,,0.00,weatherlink.com 1.10,2013-06-26 11:02:00,
2013-06-26 07:17:00,72.0,67.0,29.84,NW,326,0.0,2.0,84,0.00,,,0.00,weatherlink.com 1.10,2013-06-26 11:17:00,
2013-06-26 07:32:00,72.5,67.0,29.84,West,274,1.0,3.0,83,0.00,,,0.00,weatherlink.com 1.10,2013-06-26 11:32:00,
2013-06-26 07:47:00,72.9,67.0,29.84,North,1,0.0,2.0,82,0.00,,,0.00,weatherlink.com 1.10,2013-06-26 11:47:00,
2013-06-26 08:02:00,73.6,67.0,29.83,NW,326,0.0,1.0,80,0.00,,,0.00,weatherlink.com 1.10,2013-06-26 12:02:00,
2013-06-26 08:17:00,74.5,67.0,29.84,West,281,0.0,3.0,78,0.00,,,0.00,weatherlink.com 1.10,2013-06-26 12:17:00,
2013-06-26 08:32:00,75.6,68.0,29.84,North,4,0.0,3.0,77,0.00,,,0.00,weatherlink.com 1.10,2013-06-26 12:32:00,
2013-06-26 08:47:00,76.0,68.0,29.84,NNE,25,0.0,0.0,76,0.00,,,0.00,weatherlink.com 1.10,2013-06-26 12:47:00,
2013-06-26 09:02:00,76.1,68.0,29.84,WSW,248,0.0,3.0,77,0.00,,,0.00,weatherlink.com 1.10,2013-06-26 13:02:00,
2013-06-26 09:17:00,76.9,69.0,29.84,SW,235,0.0,2.0,76,0.00,,,0.00,weatherlink.com 1.10,2013-06-26 13:17:00,
2013-06-26 09:32:00,77.7,69.0,29.84,WSW,244,2.0,3.0,74,0.00,,,0.00,weatherlink.com 1.10,2013-06-26 13:32:00,
2013-06-26 09:47:00,78.4,67.0,29.83,WSW,248,1.0,4.0,69,0.00,,,0.00,weatherlink.com 1.10,2013-06-26 13:47:00,
2013-06-26 10:02:00,79.1,68.0,29.83,ESE,120,2.0,3.0,68,0.00,,,0.00,weatherlink.com 1.10,2013-06-26 14:02:00,
2013-06-26 10:17:00,79.8,67.0,29.84,SSE,147,0.0,3.0,66,0.00,,,0.00,weatherlink.com 1.10,2013-06-26 14:17:00,
2013-06-26 10:32:00,79.2,68.0,29.84,WNW,287,1.0,3.0,69,0.00,,,0.00,weatherlink.com 1.10,2013-06-26 14:32:00,
2013-06-26 10:47:00,79.5,68.0,29.84,WNW,284,1.0,2.0,69,0.00,,,0.00,weatherlink.com 1.10,2013-06-26 14:47:00,
2013-06-26 11:02:00,79.9,68.0,29.84,North,352,2.0,2.0,68,0.00,,,0.00,weatherlink.com 1.10,2013-06-26 15:02:00,
2013-06-26 11:17:00,80.0,69.0,29.84,ESE,108,0.0,4.0,68,0.00,,,0.00,weatherlink.com 1.10,2013-06-26 15:17:00,
2013-06-26 11:32:00,79.7,68.0,29.84,NW,313,0.0,2.0,68,0.00,,,0.00,weatherlink.com 1.10,2013-06-26 15:32:00,
2013-06-26 11:47:00,79.5,68.0,29.84,WNW,283,1.0,3.0,69,0.00,,,0.00,weatherlink.com 1.10,2013-06-26 15:47:00,
2013-06-26 12:02:00,79.1,69.0,29.84,WSW,250,1.0,3.0,70,0.00,,,0.00,weatherlink.com 1.10,2013-06-26 16:02:00,
2013-06-26 12:17:00,79.6,69.0,29.85,SW,219,0.0,2.0,70,0.00,,,0.00,weatherlink.com 1.10,2013-06-26 16:17:00,
2013-06-26 12:32:00,79.7,69.0,29.85,West,276,0.0,4.0,69,0.00,,,0.00,weatherlink.com 1.10,2013-06-26 16:32:00,
2013-06-26 12:47:00,80.4,69.0,29.85,WSW,239,0.0,2.0,68,0.00,,,0.00,weatherlink.com 1.10,2013-06-26 16:47:00,
2013-06-26 13:02:00,80.5,69.0,29.85,West,259,0.0,2.0,69,0.00,,,0.00,weatherlink.com 1.10,2013-06-26 17:02:00,
2013-06-26 13:18:00,80.6,69.0,29.85,NE,49,0.0,2.0,68,0.00,,,0.00,weatherlink.com 1.10,2013-06-26 17:18:00,
2013-06-26 13:33:00,80.2,69.0,29.84,West,274,0.0,3.0,69,0.00,,,0.00,weatherlink.com 1.10,2013-06-26 17:33:00,
2013-06-26 13:48:00,80.5,69.0,29.84,North,11,0.0,2.0,67,0.00,,,0.00,weatherlink.com 1.10,2013-06-26 17:48:00,
2013-06-26 14:03:00,80.6,69.0,29.84,WSW,243,0.0,3.0,67,0.00,,,0.00,weatherlink.com 1.10,2013-06-26 18:03:00,
2013-06-26 14:18:00,80.6,70.0,29.84,WSW,242,0.0,1.0,70,0.00,,,0.00,weatherlink.com 1.10,2013-06-26 18:18:00,
2013-06-26 14:33:00,80.4,69.0,29.84,West,280,1.0,2.0,69,0.00,,,0.00,weatherlink.com 1.10,2013-06-26 18:33:00,
2013-06-26 14:48:00,80.8,70.0,29.84,WSW,255,0.0,2.0,69,0.00,,,0.00,weatherlink.com 1.10,2013-06-26 18:48:00,
2013-06-26 15:03:00,81.9,70.0,29.83,WNW,289,0.0,4.0,68,0.00,,,0.00,weatherlink.com 1.10,2013-06-26 19:03:00,
2013-06-26 15:18:00,83.9,71.0,29.82,West,276,1.0,3.0,65,0.00,,,0.00,weatherlink.com 1.10,2013-06-26 19:18:00,
2013-06-26 15:33:00,84.6,71.0,29.82,NW,311,1.0,5.0,63,0.00,,,0.00,weatherlink.com 1.10,2013-06-26 19:33:00,
2013-06-26 15:48:00,86.1,71.0,29.81,North,359,1.0,3.0,61,0.00,,,0.00,weatherlink.com 1.10,2013-06-26 19:48:00,
2013-06-26 16:03:00,86.0,69.0,29.80,SW,224,0.0,5.0,57,0.00,,,0.00,weatherlink.com 1.10,2013-06-26 20:03:00,
2013-06-26 16:18:00,85.9,69.0,29.80,West,262,1.0,3.0,58,0.00,,,0.00,weatherlink.com 1.10,2013-06-26 20:18:00,
2013-06-26 16:33:00,85.5,70.0,29.80,West,276,0.0,2.0,60,0.00,,,0.00,weatherlink.com 1.10,2013-06-26 20:33:00,
2013-06-26 16:48:00,85.9,71.0,29.79,NW,313,0.0,1.0,61,0.00,,,0.00,weatherlink.com 1.10,2013-06-26 20:48:00,
2013-06-26 17:03:00,85.4,70.0,29.79,NNE,23,0.0,2.0,61,0.00,,,0.00,weatherlink.com 1.10,2013-06-26 21:03:00,
2013-06-26 17:18:00,85.6,70.0,29.79,WSW,243,1.0,3.0,60,0.00,,,0.00,weatherlink.com 1.10,2013-06-26 21:18:00,
2013-06-26 17:48:00,85.4,70.0,29.78,North,352,1.0,3.0,60,0.00,,,0.00,weatherlink.com 1.10,2013-06-26 21:48:00,
2013-06-26 18:03:00,85.1,69.0,29.79,WNW,298,1.0,3.0,59,0.00,,,0.00,weatherlink.com 1.10,2013-06-26 22:03:00,
2013-06-26 18:18:00,84.6,69.0,29.79,WSW,249,0.0,1.0,60,0.00,,,0.00,weatherlink.com 1.10,2013-06-26 22:18:00,
2013-06-26 18:33:00,84.0,69.0,29.78,SW,222,0.0,0.0,61,0.00,,,0.00,weatherlink.com 1.10,2013-06-26 22:33:00,
2013-06-26 18:48:00,83.9,69.0,29.78,WSW,246,0.0,1.0,62,0.00,,,0.00,weatherlink.com 1.10,2013-06-26 22:48:00,
2013-06-26 19:03:00,84.2,69.0,29.79,North,360,0.0,1.0,61,0.00,,,0.00,weatherlink.com 1.10,2013-06-26 23:03:00,
2013-06-26 19:18:00,84.2,69.0,29.79,NNE,19,0.0,1.0,61,0.00,,,0.00,weatherlink.com 1.10,2013-06-26 23:18:00,
2013-06-26 19:33:00,84.2,69.0,29.79,NNE,15,0.0,0.0,61,0.00,,,0.00,weatherlink.com 1.10,2013-06-26 23:33:00,
2013-06-26 19:48:00,83.6,69.0,29.80,NNE,15,0.0,0.0,62,0.00,,,0.00,weatherlink.com 1.10,2013-06-26 23:48:00,
2013-06-26 20:03:00,83.1,69.0,29.80,NNE,15,0.0,1.0,63,0.00,,,0.00,weatherlink.com 1.10,2013-06-27 00:03:00,
2013-06-26 20:18:00,81.9,70.0,29.79,NNE,15,0.0,0.0,67,0.00,,,0.00,weatherlink.com 1.10,2013-06-27 00:18:00,
2013-06-26 20:33:00,80.8,70.0,29.79,NNE,15,0.0,0.0,70,0.00,,,0.00,weatherlink.com 1.10,2013-06-27 00:33:00,
2013-06-26 20:48:00,79.8,70.0,29.79,NNE,16,0.0,0.0,72,0.00,,,0.00,weatherlink.com 1.10,2013-06-27 00:48:00,
2013-06-26 21:03:00,78.9,70.0,29.80,NNE,16,0.0,0.0,74,0.00,,,0.00,weatherlink.com 1.10,2013-06-27 01:03:00,
2013-06-26 21:18:00,78.2,70.0,29.80,NNE,15,0.0,0.0,76,0.00,,,0.00,weatherlink.com 1.10,2013-06-27 01:18:00,
2013-06-26 21:33:00,77.7,70.0,29.81,NNE,13,0.0,0.0,78,0.00,,,0.00,weatherlink.com 1.10,2013-06-27 01:33:00,
2013-06-26 21:48:00,77.8,71.0,29.81,SW,218,1.0,1.0,80,0.00,,,0.00,weatherlink.com 1.10,2013-06-27 01:48:00,
2013-06-26 22:03:00,77.6,71.0,29.81,SW,218,0.0,0.0,81,0.00,,,0.00,weatherlink.com 1.10,2013-06-27 02:03:00,
2013-06-26 22:18:00,77.2,71.0,29.81,SW,222,0.0,0.0,82,0.00,,,0.00,weatherlink.com 1.10,2013-06-27 02:18:00,
2013-06-26 22:33:00,76.7,71.0,29.81,SW,222,0.0,0.0,83,0.00,,,0.00,weatherlink.com 1.10,2013-06-27 02:33:00,
2013-06-26 22:48:00,76.5,71.0,29.81,SW,222,0.0,0.0,84,0.00,,,0.00,weatherlink.com 1.10,2013-06-27 02:48:00,
2013-06-26 23:03:00,76.4,71.0,29.81,SW,223,0.0,0.0,84,0.00,,,0.00,weatherlink.com 1.10,2013-06-27 03:03:00,
2013-06-26 23:18:00,76.4,72.0,29.82,SW,222,0.0,0.0,85,0.00,,,0.00,weatherlink.com 1.10,2013-06-27 03:18:00,
2013-06-26 23:33:00,76.3,72.0,29.82,SW,223,0.0,1.0,85,0.00,,,0.00,weatherlink.com 1.10,2013-06-27 03:33:00,
2013-06-26 23:48:00,76.3,72.0,29.82,SW,222,0.0,0.0,85,0.00,,,0.00,weatherlink.com 1.10,2013-06-27 03:48:00,